Time;durP1;ratioP1;P1;durP2;ratioP2;P2;SDS_P1;SDS_P2;PMS_P1;PMS_P2;Temp;Humidity;BMP_temperature;BMP_pressure;BME280_temperature;BME280_humidity;BME280_pressure;Samples;Min_cycle;Max_cycle;Signal;HPM_P1;HPM_P2
2021/09/07 00:03:40;;;;;;;0.00;0.00;;;;;;;;;;10516771;28;20056;-70
2021/09/07 00:08:43;;;;;;;0.00;0.00;;;;;;;;;;10517945;28;20558;-69
2021/09/07 00:13:49;;;;;;;0.00;0.00;;;;;;;;;;10515848;28;20040;-69
2021/09/07 00:18:53;;;;;;;0.08;0.08;;;;;;;;;;10517465;28;20044;-69
2021/09/07 00:23:56;;;;;;;0.00;0.00;;;;;;;;;;10516525;28;20856;-70
2021/09/07 00:28:59;;;;;;;0.00;0.00;;;;;;;;;;10516395;28;20379;-69
2021/09/07 00:34:03;;;;;;;0.00;0.00;;;;;;;;;;10517207;28;20101;-69
2021/09/07 00:39:06;;;;;;;0.00;0.00;;;;;;;;;;10513487;28;20052;-69
2021/09/07 00:44:13;;;;;;;0.00;0.00;;;;;;;;;;10516179;28;20561;-69
2021/09/07 00:49:17;;;;;;;0.10;0.00;;;;;;;;;;10517163;28;20703;-69
2021/09/07 00:54:20;;;;;;;0.00;0.00;;;;;;;;;;10512790;28;20076;-70
2021/09/07 00:59:24;;;;;;;0.00;0.00;;;;;;;;;;10517065;28;20040;-69
2021/09/07 01:04:28;;;;;;;0.08;0.08;;;;;;;;;;10524975;28;20043;-69
2021/09/07 01:09:31;;;;;;;0.00;0.00;;;;;;;;;;10527613;28;20052;-70
2021/09/07 01:14:36;;;;;;;0.00;0.00;;;;;;;;;;10526652;28;20034;-70
2021/09/07 01:19:42;;;;;;;0.00;0.00;;;;;;;;;;10526966;28;20449;-69
2021/09/07 01:24:46;;;;;;;0.43;0.00;;;;;;;;;;10524130;28;20046;-69
2021/09/07 01:29:49;;;;;;;0.00;0.00;;;;;;;;;;10525074;28;20402;-69
2021/09/07 01:34:53;;;;;;;0.00;0.00;;;;;;;;;;10524693;28;20044;-69
2021/09/07 01:39:57;;;;;;;0.00;0.00;;;;;;;;;;10525413;28;20052;-69
2021/09/07 01:44:59;;;;;;;0.00;0.00;;;;;;;;;;10525414;28;20462;-69
2021/09/07 01:50:02;;;;;;;0.00;0.00;;;;;;;;;;10524897;28;20802;-69
2021/09/07 01:55:07;;;;;;;0.00;0.00;;;;;;;;;;10521160;28;20912;-69
2021/09/07 02:00:13;;;;;;;0.00;0.00;;;;;;;;;;10524103;28;20754;-69
2021/09/07 02:05:16;;;;;;;0.00;0.00;;;;;;;;;;10522372;28;20051;-69
2021/09/07 02:10:21;;;;;;;0.00;0.00;;;;;;;;;;10523724;28;20036;-69
2021/09/07 02:15:24;;;;;;;0.00;0.00;;;;;;;;;;10520428;28;20103;-69
2021/09/07 02:20:27;;;;;;;0.00;0.00;;;;;;;;;;10524527;28;20040;-69
2021/09/07 02:25:31;;;;;;;0.00;0.00;;;;;;;;;;10521017;28;20862;-69
2021/09/07 02:30:35;;;;;;;0.08;0.08;;;;;;;;;;10516673;28;20409;-69
2021/09/07 02:35:40;;;;;;;0.00;0.00;;;;;;;;;;10520197;28;20551;-69
2021/09/07 02:40:45;;;;;;;0.00;0.00;;;;;;;;;;10520848;28;20049;-69
2021/09/07 02:45:47;;;;;;;0.00;0.00;;;;;;;;;;10519242;28;20036;-69
2021/09/07 02:50:50;;;;;;;0.03;0.03;;;;;;;;;;10522628;28;20097;-69
2021/09/07 02:55:55;;;;;;;0.00;0.00;;;;;;;;;;10519151;28;20048;-68
2021/09/07 03:00:58;;;;;;;0.00;0.00;;;;;;;;;;10521759;28;20466;-69
2021/09/07 03:06:01;;;;;;;0.00;0.00;;;;;;;;;;10505820;28;20052;-69
2021/09/07 03:11:06;;;;;;;0.00;0.00;;;;;;;;;;10518818;28;20116;-69
2021/09/07 03:16:08;;;;;;;0.00;0.00;;;;;;;;;;10515865;28;20141;-67
2021/09/07 03:21:12;;;;;;;0.00;0.00;;;;;;;;;;10501818;28;20051;-67
2021/09/07 03:26:16;;;;;;;0.00;0.00;;;;;;;;;;10515547;28;20046;-67
2021/09/07 03:31:20;;;;;;;0.00;0.00;;;;;;;;;;10516365;28;20039;-67
2021/09/07 03:36:23;;;;;;;0.00;0.00;;;;;;;;;;10517950;28;20506;-67
2021/09/07 03:41:28;;;;;;;0.00;0.00;;;;;;;;;;10520044;28;20129;-67
2021/09/07 03:46:31;;;;;;;0.00;0.00;;;;;;;;;;10520060;28;20054;-67
2021/09/07 03:51:34;;;;;;;0.00;0.00;;;;;;;;;;10520402;28;20067;-67
2021/09/07 03:56:39;;;;;;;0.00;0.00;;;;;;;;;;10518229;28;20470;-67
2021/09/07 04:01:42;;;;;;;0.00;0.00;;;;;;;;;;10522229;28;20123;-68
2021/09/07 04:06:46;;;;;;;0.00;0.00;;;;;;;;;;10517023;28;20040;-67
2021/09/07 04:11:51;;;;;;;0.05;0.00;;;;;;;;;;10508610;28;20040;-67
2021/09/07 04:16:55;;;;;;;0.00;0.00;;;;;;;;;;10517130;28;20040;-68
2021/09/07 04:21:58;;;;;;;0.00;0.00;;;;;;;;;;10524128;28;20040;-66
2021/09/07 04:27:02;;;;;;;0.00;0.00;;;;;;;;;;10519688;28;20492;-68
2021/09/07 04:32:06;;;;;;;0.00;0.00;;;;;;;;;;10518704;28;20113;-66
2021/09/07 04:37:09;;;;;;;0.00;0.00;;;;;;;;;;10519992;28;20050;-65
2021/09/07 04:42:14;;;;;;;0.08;0.08;;;;;;;;;;10488441;28;20442;-64
2021/09/07 04:47:16;;;;;;;0.00;0.00;;;;;;;;;;10486936;28;20045;-63
2021/09/07 04:52:19;;;;;;;0.05;0.00;;;;;;;;;;10490199;28;20040;-63
2021/09/07 04:57:24;;;;;;;0.00;0.00;;;;;;;;;;10487058;28;20045;-63
2021/09/07 05:02:27;;;;;;;0.00;0.00;;;;;;;;;;10493070;28;20151;-64
2021/09/07 05:07:30;;;;;;;0.00;0.00;;;;;;;;;;10484807;28;20476;-63
2021/09/07 05:12:35;;;;;;;0.00;0.00;;;;;;;;;;10488071;28;20420;-64
2021/09/07 05:17:37;;;;;;;0.00;0.00;;;;;;;;;;10487132;28;20045;-65
2021/09/07 05:22:40;;;;;;;0.00;0.00;;;;;;;;;;10487707;28;20553;-63
2021/09/07 05:27:44;;;;;;;0.00;0.00;;;;;;;;;;10482092;28;20053;-65
2021/09/07 05:32:48;;;;;;;0.08;0.08;;;;;;;;;;10482040;28;20542;-63
2021/09/07 05:37:50;;;;;;;0.00;0.00;;;;;;;;;;10491760;28;20425;-64
2021/09/07 05:42:55;;;;;;;0.00;0.00;;;;;;;;;;10526639;28;20822;-66
2021/09/07 05:47:57;;;;;;;0.00;0.00;;;;;;;;;;10527928;28;20072;-67
2021/09/07 05:53:01;;;;;;;0.00;0.00;;;;;;;;;;10525208;28;20666;-66
2021/09/07 05:58:05;;;;;;;0.00;0.00;;;;;;;;;;10526293;28;20079;-64
2021/09/07 06:03:09;;;;;;;0.08;0.00;;;;;;;;;;10526881;28;20047;-66
2021/09/07 06:08:12;;;;;;;0.00;0.00;;;;;;;;;;10525728;28;20207;-65
2021/09/07 06:13:16;;;;;;;0.00;0.00;;;;;;;;;;10524152;28;20052;-64
2021/09/07 06:18:18;;;;;;;0.00;0.00;;;;;;;;;;10525084;28;20044;-65
2021/09/07 06:23:22;;;;;;;0.00;0.00;;;;;;;;;;10523987;28;20046;-65
2021/09/07 06:28:27;;;;;;;0.00;0.00;;;;;;;;;;10523362;28;20062;-64
2021/09/07 06:33:29;;;;;;;0.00;0.00;;;;;;;;;;10523872;28;20055;-65
2021/09/07 06:38:32;;;;;;;0.00;0.00;;;;;;;;;;10522845;28;20060;-65
2021/09/07 06:43:36;;;;;;;0.00;0.00;;;;;;;;;;10501904;28;20055;-64
2021/09/07 06:48:39;;;;;;;0.00;0.00;;;;;;;;;;10520496;28;20040;-64
2021/09/07 06:53:42;;;;;;;0.10;0.10;;;;;;;;;;10522269;28;20110;-64
2021/09/07 06:58:46;;;;;;;0.00;0.00;;;;;;;;;;10519840;28;20155;-64
2021/09/07 07:03:49;;;;;;;0.00;0.00;;;;;;;;;;10523678;28;20043;-63
2021/09/07 07:08:52;;;;;;;0.00;0.00;;;;;;;;;;10521556;28;20055;-64
2021/09/07 07:13:57;;;;;;;0.00;0.00;;;;;;;;;;10525393;28;20046;-66
2021/09/07 07:19:00;;;;;;;0.00;0.00;;;;;;;;;;10538662;28;20050;-66
2021/09/07 07:24:02;;;;;;;0.05;0.00;;;;;;;;;;10522623;28;20044;-65
2021/09/07 07:29:06;;;;;;;0.00;0.00;;;;;;;;;;10522301;28;20036;-65
2021/09/07 07:34:09;;;;;;;0.00;0.00;;;;;;;;;;10521979;28;20048;-65
2021/09/07 07:39:12;;;;;;;0.00;0.00;;;;;;;;;;10523252;28;20139;-65
2021/09/07 07:44:16;;;;;;;0.00;0.00;;;;;;;;;;10520262;28;20048;-65
2021/09/07 07:49:19;;;;;;;0.00;0.00;;;;;;;;;;10519957;28;20040;-65
2021/09/07 07:54:22;;;;;;;0.00;0.00;;;;;;;;;;10521400;28;20044;-65
2021/09/07 07:59:29;;;;;;;0.00;0.00;;;;;;;;;;10521918;28;20046;-65
2021/09/07 08:04:32;;;;;;;0.00;0.00;;;;;;;;;;10506786;28;20056;-65
2021/09/07 08:09:35;;;;;;;0.00;0.00;;;;;;;;;;10521373;28;20036;-65
2021/09/07 08:14:39;;;;;;;0.00;0.00;;;;;;;;;;10528124;28;20494;-65
2021/09/07 08:19:43;;;;;;;0.00;0.00;;;;;;;;;;10527339;28;20507;-65
2021/09/07 08:24:48;;;;;;;0.00;0.00;;;;;;;;;;10526159;28;20486;-65
2021/09/07 08:29:56;;;;;;;0.00;0.00;;;;;;;;;;10527698;28;20062;-65
2021/09/07 08:34:58;;;;;;;0.00;0.00;;;;;;;;;;10512833;28;20058;-66
2021/09/07 08:40:01;;;;;;;0.00;0.00;;;;;;;;;;10527105;28;20051;-65
2021/09/07 08:45:08;;;;;;;0.00;0.00;;;;;;;;;;10527300;28;20040;-65
2021/09/07 08:50:11;;;;;;;0.00;0.00;;;;;;;;;;10528008;28;20036;-65
2021/09/07 08:55:14;;;;;;;0.00;0.00;;;;;;;;;;10508133;28;20403;-65
2021/09/07 09:00:23;;;;;;;0.00;0.00;;;;;;;;;;10531215;28;20376;-65
2021/09/07 09:05:27;;;;;;;0.00;0.00;;;;;;;;;;10526613;28;20497;-67
2021/09/07 09:10:30;;;;;;;0.00;0.00;;;;;;;;;;10527740;28;20560;-66
2021/09/07 09:15:36;;;;;;;0.00;0.00;;;;;;;;;;10527095;28;20153;-65
2021/09/07 09:20:40;;;;;;;0.00;0.00;;;;;;;;;;10527846;28;20507;-66
2021/09/07 09:25:43;;;;;;;0.00;0.00;;;;;;;;;;10521450;28;20501;-66
2021/09/07 09:30:52;;;;;;;0.00;0.00;;;;;;;;;;10522569;28;20056;-67
2021/09/07 09:35:56;;;;;;;0.00;0.00;;;;;;;;;;10508694;28;20371;-66
2021/09/07 09:41:00;;;;;;;0.00;0.00;;;;;;;;;;10526157;28;20060;-66
2021/09/07 09:46:24;;;;;;;0.00;0.00;;;;;;;;;;10525202;28;20477;-66
2021/09/07 09:51:26;;;;;;;0.00;0.00;;;;;;;;;;10523419;28;20041;-66
2021/09/07 09:56:29;;;;;;;0.00;0.00;;;;;;;;;;10523049;28;20052;-66
2021/09/07 10:01:35;;;;;;;0.00;0.00;;;;;;;;;;10526690;28;20515;-66
2021/09/07 10:06:38;;;;;;;0.00;0.00;;;;;;;;;;10508567;28;20072;-66
2021/09/07 10:11:41;;;;;;;0.00;0.00;;;;;;;;;;10524212;28;20506;-66
2021/09/07 10:16:53;;;;;;;0.00;0.00;;;;;;;;;;10525422;28;20044;-66
2021/09/07 10:27:16;;;;;;;0.00;0.00;;;;;;;;;;10523502;28;20123;-66
2021/09/07 10:32:30;;;;;;;0.00;0.00;;;;;;;;;;10521288;28;20039;-66
2021/09/07 10:38:00;;;;;;;0.00;0.00;;;;;;;;;;10523815;28;20086;-66
2021/09/07 10:43:03;;;;;;;0.00;0.00;;;;;;;;;;10459018;28;20048;-66
2021/09/07 10:48:31;;;;;;;0.05;0.00;;;;;;;;;;10524103;28;20048;-66
2021/09/07 10:53:33;;;;;;;0.00;0.00;;;;;;;;;;10524272;28;20028;-65
2021/09/07 10:58:36;;;;;;;0.00;0.00;;;;;;;;;;10522243;28;20437;-64
2021/09/07 11:03:40;;;;;;;0.00;0.00;;;;;;;;;;10526082;28;20040;-66
2021/09/07 11:08:46;;;;;;;0.00;0.00;;;;;;;;;;10519065;28;20056;-65
2021/09/07 11:13:54;;;;;;;0.00;0.00;;;;;;;;;;10522702;28;20497;-65
2021/09/07 11:19:02;;;;;;;0.00;0.00;;;;;;;;;;10522879;28;20070;-65
2021/09/07 11:24:05;;;;;;;0.00;0.00;;;;;;;;;;10503838;28;20498;-65
2021/09/07 11:29:08;;;;;;;0.00;0.00;;;;;;;;;;10522286;28;20047;-67
2021/09/07 11:34:16;;;;;;;0.00;0.00;;;;;;;;;;10520864;28;20032;-65
2021/09/07 11:39:19;;;;;;;0.00;0.00;;;;;;;;;;10521908;28;20076;-65
2021/09/07 11:44:25;;;;;;;0.00;0.00;;;;;;;;;;10519746;28;20036;-65
2021/09/07 11:49:29;;;;;;;0.00;0.00;;;;;;;;;;10520055;28;20036;-65
2021/09/07 11:54:45;;;;;;;0.00;0.00;;;;;;;;;;10520704;28;20051;-65
2021/09/07 11:59:59;;;;;;;0.00;0.00;;;;;;;;;;10521819;28;20040;-65
2021/09/07 12:05:03;;;;;;;0.00;0.00;;;;;;;;;;10519458;28;20052;-65
2021/09/07 12:10:06;;;;;;;0.00;0.00;;;;;;;;;;10519913;28;20046;-65
2021/09/07 12:15:15;;;;;;;0.00;0.00;;;;;;;;;;10522045;28;20085;-65
2021/09/07 12:20:19;;;;;;;0.00;0.00;;;;;;;;;;10522029;28;20060;-67
2021/09/07 12:25:22;;;;;;;0.00;0.00;;;;;;;;;;10520880;28;20063;-65
2021/09/07 12:30:30;;;;;;;0.00;0.00;;;;;;;;;;10521526;28;20052;-65
2021/09/07 12:35:39;;;;;;;0.00;0.00;;;;;;;;;;10520914;28;20542;-65
2021/09/07 12:40:43;;;;;;;0.00;0.00;;;;;;;;;;10519403;28;20075;-65
2021/09/07 12:45:47;;;;;;;0.00;0.00;;;;;;;;;;10517564;28;20066;-65
2021/09/07 12:50:52;;;;;;;0.00;0.00;;;;;;;;;;10522789;28;20040;-65
2021/09/07 12:55:55;;;;;;;0.00;0.00;;;;;;;;;;10521081;28;20047;-65
2021/09/07 13:00:58;;;;;;;0.00;0.00;;;;;;;;;;10530215;28;20467;-65
2021/09/07 13:06:04;;;;;;;0.00;0.00;;;;;;;;;;10527808;28;20612;-65
2021/09/07 13:11:06;;;;;;;0.00;0.00;;;;;;;;;;10526614;28;20046;-67
2021/09/07 13:16:10;;;;;;;0.00;0.00;;;;;;;;;;10527184;28;20090;-70
2021/09/07 13:21:14;;;;;;;0.00;0.00;;;;;;;;;;10528306;28;20098;-66
2021/09/07 13:26:17;;;;;;;0.00;0.00;;;;;;;;;;10522821;28;20054;-67
2021/09/07 13:31:20;;;;;;;0.00;0.00;;;;;;;;;;10510380;28;20129;-66
2021/09/07 13:36:29;;;;;;;0.00;0.00;;;;;;;;;;10524759;28;20573;-66
2021/09/07 13:41:35;;;;;;;0.00;0.00;;;;;;;;;;10524173;28;20065;-68
2021/09/07 13:46:38;;;;;;;0.00;0.00;;;;;;;;;;10523002;28;20126;-66
2021/09/07 13:51:43;;;;;;;0.00;0.00;;;;;;;;;;10524817;28;20424;-66
2021/09/07 13:56:45;;;;;;;0.00;0.00;;;;;;;;;;10521567;28;20048;-66
2021/09/07 14:01:48;;;;;;;0.00;0.00;;;;;;;;;;10507163;28;20052;-66
2021/09/07 14:06:55;;;;;;;0.00;0.00;;;;;;;;;;10509447;28;20052;-67
2021/09/07 14:11:58;;;;;;;0.00;0.00;;;;;;;;;;10533613;28;20054;-66
2021/09/07 14:17:00;;;;;;;0.00;0.00;;;;;;;;;;10517577;28;20310;-66
2021/09/07 14:22:05;;;;;;;0.00;0.00;;;;;;;;;;10528410;28;20044;-67
2021/09/07 14:27:08;;;;;;;0.00;0.00;;;;;;;;;;10525004;28;20059;-66
2021/09/07 14:32:12;;;;;;;0.00;0.00;;;;;;;;;;10521647;28;20033;-66
2021/09/07 14:37:16;;;;;;;0.00;0.00;;;;;;;;;;10520091;28;20150;-68
2021/09/07 14:42:20;;;;;;;0.00;0.00;;;;;;;;;;10506443;28;20039;-68
2021/09/07 14:47:23;;;;;;;0.00;0.00;;;;;;;;;;10502320;28;20052;-70
2021/09/07 14:52:27;;;;;;;0.00;0.00;;;;;;;;;;10522149;28;20501;-69
2021/09/07 14:57:29;;;;;;;0.00;0.00;;;;;;;;;;10522269;28;20070;-69
2021/09/07 15:02:32;;;;;;;0.00;0.00;;;;;;;;;;10526412;28;20028;-65
2021/09/07 15:07:37;;;;;;;0.00;0.00;;;;;;;;;;10523523;28;20051;-66
2021/09/07 15:12:41;;;;;;;0.00;0.00;;;;;;;;;;10522373;28;20094;-69
2021/09/07 15:17:44;;;;;;;0.10;0.00;;;;;;;;;;10522778;28;20044;-65
2021/09/07 15:22:48;;;;;;;0.20;0.00;;;;;;;;;;10517593;28;20047;-65
2021/09/07 15:27:51;;;;;;;0.10;0.00;;;;;;;;;;10502067;28;20056;-67
2021/09/07 15:32:54;;;;;;;0.00;0.00;;;;;;;;;;10506002;28;20398;-76
2021/09/07 15:37:58;;;;;;;0.20;0.05;;;;;;;;;;10517871;28;20058;-70
2021/09/07 15:43:02;;;;;;;0.00;0.00;;;;;;;;;;10516937;28;20048;-73
2021/09/07 15:48:05;;;;;;;0.00;0.00;;;;;;;;;;10519570;28;20051;-71
2021/09/07 15:53:09;;;;;;;0.00;0.00;;;;;;;;;;10516754;28;20044;-68
2021/09/07 15:58:12;;;;;;;0.00;0.00;;;;;;;;;;10518591;28;20589;-72
2021/09/07 16:03:15;;;;;;;0.00;0.00;;;;;;;;;;10516862;28;20040;-69
2021/09/07 16:08:20;;;;;;;0.00;0.00;;;;;;;;;;10519807;28;20395;-70
2021/09/07 16:13:23;;;;;;;0.00;0.00;;;;;;;;;;10517909;28;20581;-68
2021/09/07 16:18:26;;;;;;;0.00;0.00;;;;;;;;;;10518704;28;20681;-70
2021/09/07 16:23:30;;;;;;;0.00;0.00;;;;;;;;;;10515870;28;20194;-67
2021/09/07 16:28:33;;;;;;;0.00;0.00;;;;;;;;;;10514970;28;20059;-66
2021/09/07 16:33:39;;;;;;;0.00;0.00;;;;;;;;;;10519220;28;20047;-66
2021/09/07 16:38:43;;;;;;;0.00;0.00;;;;;;;;;;10522840;28;20059;-64
2021/09/07 16:43:46;;;;;;;0.00;0.00;;;;;;;;;;10520418;28;20040;-67
2021/09/07 16:48:49;;;;;;;0.00;0.00;;;;;;;;;;10520382;28;20417;-66
2021/09/07 16:54:02;;;;;;;0.00;0.00;;;;;;;;;;10517792;28;20036;-66
2021/09/07 16:59:05;;;;;;;0.00;0.00;;;;;;;;;;10518838;28;20753;-65
2021/09/07 17:04:09;;;;;;;0.00;0.00;;;;;;;;;;10520832;28;20047;-65
2021/09/07 17:09:14;;;;;;;0.00;0.00;;;;;;;;;;10521628;28;20429;-64
2021/09/07 17:14:16;;;;;;;0.10;0.00;;;;;;;;;;10508833;28;20059;-63
2021/09/07 17:19:19;;;;;;;0.00;0.00;;;;;;;;;;10520395;28;20125;-65
2021/09/07 17:24:23;;;;;;;0.00;0.00;;;;;;;;;;10507350;28;20401;-66
2021/09/07 17:29:27;;;;;;;0.00;0.00;;;;;;;;;;10500186;28;20062;-65
2021/09/07 17:34:35;;;;;;;0.00;0.00;;;;;;;;;;10518602;28;20112;-61
2021/09/07 17:44:59;;;;;;;0.00;0.00;;;;;;;;;;10515726;28;20437;-64
2021/09/07 17:50:03;;;;;;;0.00;0.00;;;;;;;;;;10521372;28;20578;-62
2021/09/07 17:55:14;;;;;;;0.00;0.00;;;;;;;;;;10517459;28;20032;-62
2021/09/07 18:00:17;;;;;;;0.00;0.00;;;;;;;;;;10516610;28;20051;-61
2021/09/07 18:05:22;;;;;;;0.00;0.00;;;;;;;;;;10515923;28;20374;-63
2021/09/07 18:10:28;;;;;;;0.00;0.00;;;;;;;;;;10515286;28;20466;-62
2021/09/07 18:15:32;;;;;;;0.00;0.00;;;;;;;;;;10532807;28;20048;-63
2021/09/07 18:20:36;;;;;;;0.00;0.00;;;;;;;;;;10514580;28;20040;-62
2021/09/07 18:25:43;;;;;;;0.00;0.00;;;;;;;;;;10515984;28;20127;-63
2021/09/07 18:30:46;;;;;;;0.00;0.00;;;;;;;;;;10503502;28;20048;-64
2021/09/07 18:35:50;;;;;;;0.00;0.00;;;;;;;;;;10493216;28;20051;-63
2021/09/07 18:40:54;;;;;;;0.00;0.00;;;;;;;;;;10512851;28;20113;-64
2021/09/07 18:45:58;;;;;;;0.00;0.00;;;;;;;;;;10502528;28;20059;-63
2021/09/07 18:51:01;;;;;;;0.00;0.00;;;;;;;;;;10500304;28;20051;-62
2021/09/07 18:56:06;;;;;;;0.00;0.00;;;;;;;;;;10500643;28;20040;-63
2021/09/07 19:01:11;;;;;;;0.00;0.00;;;;;;;;;;10502614;28;20043;-63
2021/09/07 19:06:14;;;;;;;0.00;0.00;;;;;;;;;;10495146;28;20063;-63
2021/09/07 19:11:19;;;;;;;0.00;0.00;;;;;;;;;;10505191;28;20055;-65
2021/09/07 19:16:26;;;;;;;0.00;0.00;;;;;;;;;;10505375;28;20508;-66
2021/09/07 19:21:30;;;;;;;0.00;0.00;;;;;;;;;;10503322;28;20044;-66
2021/09/07 19:26:36;;;;;;;0.00;0.00;;;;;;;;;;10504603;28;20031;-67
2021/09/07 19:31:38;;;;;;;0.00;0.00;;;;;;;;;;10506139;28;20052;-66
2021/09/07 19:36:48;;;;;;;0.00;0.00;;;;;;;;;;10509913;28;21117;-66
2021/09/07 19:41:57;;;;;;;0.00;0.00;;;;;;;;;;10497609;28;20056;-67
2021/09/07 19:47:00;;;;;;;0.10;0.00;;;;;;;;;;10509718;28;20043;-66
2021/09/07 19:52:03;;;;;;;0.00;0.00;;;;;;;;;;10514522;28;20044;-66
2021/09/07 19:57:07;;;;;;;0.00;0.00;;;;;;;;;;10512122;28;20126;-66
2021/09/07 20:02:10;;;;;;;0.00;0.00;;;;;;;;;;10513303;28;20052;-66
2021/09/07 20:07:13;;;;;;;0.00;0.00;;;;;;;;;;10500014;28;20093;-66
2021/09/07 20:12:17;;;;;;;0.00;0.00;;;;;;;;;;10520505;28;20500;-66
2021/09/07 20:17:20;;;;;;;0.00;0.00;;;;;;;;;;10517380;28;20036;-66
2021/09/07 20:22:22;;;;;;;0.00;0.00;;;;;;;;;;10519549;28;20043;-67
2021/09/07 20:27:27;;;;;;;0.00;0.00;;;;;;;;;;10516099;28;20036;-66
2021/09/07 20:32:29;;;;;;;0.00;0.00;;;;;;;;;;10519347;28;20067;-66
2021/09/07 20:37:32;;;;;;;0.00;0.00;;;;;;;;;;10517901;28;20054;-66
2021/09/07 20:42:37;;;;;;;0.00;0.00;;;;;;;;;;10515715;28;20125;-66
2021/09/07 20:47:40;;;;;;;0.00;0.00;;;;;;;;;;10520545;28;20048;-66
2021/09/07 20:52:43;;;;;;;0.00;0.00;;;;;;;;;;10500123;28;20125;-66
2021/09/07 20:57:47;;;;;;;0.00;0.00;;;;;;;;;;10516035;28;20051;-66
2021/09/07 21:02:51;;;;;;;0.03;0.00;;;;;;;;;;10517214;28;20048;-66
2021/09/07 21:07:54;;;;;;;0.00;0.00;;;;;;;;;;10516264;28;20032;-66
2021/09/07 21:12:58;;;;;;;0.00;0.00;;;;;;;;;;10514620;28;20500;-66
2021/09/07 21:18:01;;;;;;;0.00;0.00;;;;;;;;;;10517334;28;20036;-66
2021/09/07 21:23:04;;;;;;;0.00;0.00;;;;;;;;;;10522204;28;20063;-65
2021/09/07 21:28:08;;;;;;;0.00;0.00;;;;;;;;;;10501205;28;20414;-65
2021/09/07 21:33:11;;;;;;;0.00;0.00;;;;;;;;;;10517352;28;20040;-65
2021/09/07 21:38:14;;;;;;;0.00;0.00;;;;;;;;;;10517300;28;20067;-65
2021/09/07 21:43:18;;;;;;;0.05;0.00;;;;;;;;;;10498305;28;20869;-66
2021/09/07 21:48:21;;;;;;;0.00;0.00;;;;;;;;;;10517443;28;20035;-65
2021/09/07 21:53:23;;;;;;;0.00;0.00;;;;;;;;;;10516741;28;20720;-65
2021/09/07 21:58:28;;;;;;;0.00;0.00;;;;;;;;;;10516613;28;21100;-65
2021/09/07 22:03:31;;;;;;;0.00;0.00;;;;;;;;;;10512404;28;20055;-65
2021/09/07 22:08:35;;;;;;;0.00;0.00;;;;;;;;;;10498149;28;20051;-65
2021/09/07 22:13:39;;;;;;;0.00;0.00;;;;;;;;;;10499829;28;20056;-65
2021/09/07 22:18:42;;;;;;;0.00;0.00;;;;;;;;;;10515049;28;20048;-65
2021/09/07 22:23:45;;;;;;;0.00;0.00;;;;;;;;;;10516466;28;20121;-66
2021/09/07 22:28:49;;;;;;;0.00;0.00;;;;;;;;;;10514808;28;20047;-65
2021/09/07 22:33:52;;;;;;;0.00;0.00;;;;;;;;;;10516056;28;20143;-65
2021/09/07 22:38:56;;;;;;;0.00;0.00;;;;;;;;;;10515058;28;20937;-66
2021/09/07 22:44:01;;;;;;;0.00;0.00;;;;;;;;;;10499505;28;20415;-65
2021/09/07 22:49:04;;;;;;;0.00;0.00;;;;;;;;;;10513757;28;20043;-65
2021/09/07 22:54:08;;;;;;;0.00;0.00;;;;;;;;;;10504115;28;21094;-65
2021/09/07 22:59:12;;;;;;;0.00;0.00;;;;;;;;;;10499761;28;20052;-65
2021/09/07 23:04:15;;;;;;;0.00;0.00;;;;;;;;;;10514849;28;20044;-65
2021/09/07 23:09:18;;;;;;;0.00;0.00;;;;;;;;;;10512878;28;20043;-66
2021/09/07 23:14:22;;;;;;;0.00;0.00;;;;;;;;;;10515189;28;20799;-65
2021/09/07 23:19:25;;;;;;;0.00;0.00;;;;;;;;;;10496042;28;20052;-66
2021/09/07 23:24:28;;;;;;;0.00;0.00;;;;;;;;;;10512052;28;20862;-66
2021/09/07 23:29:34;;;;;;;0.00;0.00;;;;;;;;;;10513390;28;20402;-66
2021/09/07 23:34:37;;;;;;;0.00;0.00;;;;;;;;;;10514043;28;20037;-66
2021/09/07 23:39:40;;;;;;;0.00;0.00;;;;;;;;;;10512719;28;20073;-65
2021/09/07 23:44:45;;;;;;;0.00;0.00;;;;;;;;;;10512880;28;20040;-66
2021/09/07 23:49:48;;;;;;;0.00;0.00;;;;;;;;;;10515101;28;20163;-66
2021/09/07 23:54:51;;;;;;;0.00;0.00;;;;;;;;;;10503751;28;20040;-65
2021/09/07 23:59:57;;;;;;;0.00;0.00;;;;;;;;;;10513118;28;20151;-66
